Time;durP1;ratioP1;P1;durP2;ratioP2;P2;SDS_P1;SDS_P2;PMS_P1;PMS_P2;Temp;Humidity;BMP_temperature;BMP_pressure;BME280_temperature;BME280_humidity;BME280_pressure;Samples;Min_cycle;Max_cycle;Signal;HPM_P1;HPM_P2
2023/04/13 00:00:02;;;;;;;5.90;1.63;;;7.90;69.20;;;;;;4898461;29;20139;-74
2023/04/13 00:02:32;;;;;;;2.33;1.77;;;7.80;69.50;;;;;;4915732;29;20082;-78
2023/04/13 00:05:02;;;;;;;3.25;1.60;;;7.70;70.00;;;;;;4899816;29;20059;-78
2023/04/13 00:07:30;;;;;;;4.25;1.70;;;7.70;70.50;;;;;;4882102;29;20055;-78
2023/04/13 00:09:57;;;;;;;6.78;1.55;;;7.60;70.40;;;;;;4898954;29;20127;-78
2023/04/13 00:12:26;;;;;;;2.67;1.70;;;7.50;71.10;;;;;;4915683;29;20504;-80
2023/04/13 00:14:53;;;;;;;2.10;1.67;;;7.50;71.70;;;;;;4915290;29;20048;-77
2023/04/13 00:17:21;;;;;;;2.83;1.90;;;7.40;71.90;;;;;;4913508;29;20098;-78
2023/04/13 00:19:49;;;;;;;2.25;1.98;;;7.30;72.80;;;;;;4915220;29;20052;-75
2023/04/13 00:22:16;;;;;;;3.85;1.63;;;7.30;73.20;;;;;;4914338;29;20080;-74
2023/04/13 00:24:44;;;;;;;2.60;1.77;;;7.20;73.30;;;;;;4881771;29;20041;-79
2023/04/13 00:27:13;;;;;;;9.93;1.63;;;7.20;73.60;;;;;;4914118;29;20056;-78
2023/04/13 00:29:42;;;;;;;5.25;1.60;;;7.20;74.00;;;;;;4914047;29;20055;-77
2023/04/13 00:32:09;;;;;;;10.07;1.85;;;7.10;74.00;;;;;;4897647;29;20048;-78
2023/04/13 00:34:37;;;;;;;4.00;1.67;;;7.00;74.90;;;;;;4911395;29;20048;-78
2023/04/13 00:37:06;;;;;;;6.72;1.75;;;7.00;75.00;;;;;;4909762;29;20060;-78
2023/04/13 00:39:33;;;;;;;3.50;1.60;;;7.00;75.60;;;;;;4914144;29;20062;-78
2023/04/13 00:42:02;;;;;;;4.35;1.85;;;6.90;76.00;;;;;;4898303;29;20080;-78
2023/04/13 00:44:29;;;;;;;5.05;2.13;;;6.90;76.30;;;;;;4896672;29;20055;-79
2023/04/13 00:46:58;;;;;;;3.28;1.83;;;6.90;76.60;;;;;;4914462;29;20044;-79
2023/04/13 00:49:26;;;;;;;2.95;1.48;;;6.80;76.80;;;;;;4897453;29;20054;-79
2023/04/13 00:51:53;;;;;;;2.58;1.63;;;6.90;77.40;;;;;;4911629;29;20052;-79
2023/04/13 00:54:21;;;;;;;4.55;1.10;;;6.80;77.60;;;;;;4906775;29;20120;-79
2023/04/13 00:56:49;;;;;;;4.38;2.03;;;6.70;77.90;;;;;;4893907;29;20058;-79
2023/04/13 00:59:17;;;;;;;6.07;2.20;;;6.70;78.40;;;;;;4885931;29;20501;-79
2023/04/13 01:01:49;;;;;;;3.45;1.50;;;6.60;78.50;;;;;;4896711;29;20052;-80
2023/04/13 01:04:20;;;;;;;12.20;2.10;;;6.60;79.40;;;;;;4913361;29;20190;-79
2023/04/13 01:06:57;;;;;;;2.58;1.90;;;6.50;79.50;;;;;;4911415;29;20052;-79
2023/04/13 01:09:32;;;;;;;3.50;1.50;;;6.40;80.10;;;;;;4914651;29;20045;-79
2023/04/13 01:12:08;;;;;;;10.15;1.55;;;6.40;80.70;;;;;;4896669;29;20139;-79
2023/04/13 01:14:44;;;;;;;5.22;1.73;;;6.30;81.30;;;;;;4896488;29;20062;-80
2023/04/13 01:17:24;;;;;;;13.00;1.90;;;6.20;81.80;;;;;;4912953;29;20462;-79
2023/04/13 01:20:00;;;;;;;4.22;1.45;;;6.10;82.60;;;;;;4911753;29;20060;-79
2023/04/13 01:22:34;;;;;;;5.38;1.45;;;6.10;83.00;;;;;;4912292;29;20099;-78
2023/04/13 01:25:35;;;;;;;9.10;1.25;;;6.10;83.70;;;;;;4897396;29;20465;-75
2023/04/13 01:28:06;;;;;;;1.95;1.30;;;6.00;84.30;;;;;;4908964;29;20086;-73
2023/04/13 01:30:36;;;;;;;2.67;1.57;;;6.00;85.10;;;;;;4896938;29;20051;-73
2023/04/13 01:33:06;;;;;;;1.90;1.27;;;6.00;85.80;;;;;;4880505;29;20048;-74
2023/04/13 01:35:36;;;;;;;1.92;1.27;;;5.90;86.40;;;;;;4908602;29;20052;-78
2023/04/13 01:38:05;;;;;;;4.32;1.50;;;5.90;87.30;;;;;;4909547;29;20052;-78
2023/04/13 01:40:39;;;;;;;1.42;1.27;;;5.80;88.30;;;;;;4896543;29;20059;-74
2023/04/13 01:43:08;;;;;;;9.50;1.63;;;5.80;89.20;;;;;;4912794;29;20052;-74
2023/04/13 01:45:55;;;;;;;5.20;1.38;;;5.70;90.40;;;;;;4900622;29;20545;-75
2023/04/13 01:48:31;;;;;;;5.30;1.50;;;5.70;91.30;;;;;;4894354;29;20465;-77
2023/04/13 01:51:18;;;;;;;1.58;1.20;;;5.60;92.30;;;;;;4896438;29;20056;-74
2023/04/13 01:53:53;;;;;;;2.65;1.15;;;5.50;93.50;;;;;;4912568;29;20063;-75
2023/04/13 01:56:22;;;;;;;4.65;1.30;;;5.50;94.90;;;;;;4894380;29;20082;-75
2023/04/13 01:58:58;;;;;;;6.15;2.53;;;5.40;96.30;;;;;;4900279;29;20143;-74
2023/04/13 02:01:28;;;;;;;5.68;2.03;;;5.30;98.60;;;;;;4896358;29;20067;-74
2023/04/13 02:03:55;;;;;;;2.35;1.48;;;5.20;99.90;;;;;;4912231;29;20067;-74
2023/04/13 02:06:26;;;;;;;2.17;1.35;;;5.20;99.90;;;;;;4893934;29;20498;-75
2023/04/13 02:08:53;;;;;;;4.63;1.50;;;5.20;99.90;;;;;;4896685;29;20071;-74
2023/04/13 02:11:21;;;;;;;3.00;1.02;;;5.10;99.90;;;;;;4895024;29;20079;-74
2023/04/13 02:13:49;;;;;;;2.63;1.25;;;5.10;99.90;;;;;;4878424;29;20048;-75
2023/04/13 02:16:41;;;;;;;3.53;1.30;;;5.10;99.90;;;;;;4886548;29;20048;-74
2023/04/13 02:19:09;;;;;;;2.42;1.30;;;5.00;99.90;;;;;;4900020;29;20172;-74
2023/04/13 02:21:40;;;;;;;2.85;1.27;;;5.00;99.90;;;;;;4903125;29;20119;-78
2023/04/13 02:24:10;;;;;;;13.98;1.58;;;4.90;99.90;;;;;;4921509;29;20243;-78
2023/04/13 02:26:39;;;;;;;2.40;1.15;;;5.00;99.90;;;;;;4899451;29;20086;-78
2023/04/13 02:29:07;;;;;;;3.17;1.45;;;5.00;99.90;;;;;;4912819;29;20095;-78
2023/04/13 02:31:35;;;;;;;4.43;1.63;;;5.00;99.90;;;;;;4905814;29;20056;-77
2023/04/13 02:34:04;;;;;;;2.90;1.60;;;5.00;99.90;;;;;;4911832;29;20066;-77
2023/04/13 02:36:32;;;;;;;4.32;1.10;;;5.00;99.90;;;;;;4915967;29;20078;-77
2023/04/13 02:39:04;;;;;;;2.80;1.42;;;5.00;99.90;;;;;;4882180;29;20055;-80
2023/04/13 02:41:34;;;;;;;5.03;1.38;;;5.00;99.90;;;;;;4912423;29;20090;-80
2023/04/13 02:44:02;;;;;;;9.18;1.15;;;5.00;99.90;;;;;;4899006;29;20532;-77
2023/04/13 02:46:37;;;;;;;4.18;1.10;;;5.00;99.90;;;;;;4911135;29;20541;-78
2023/04/13 02:49:12;;;;;;;1.48;1.00;;;5.00;99.90;;;;;;4910056;29;20155;-78
2023/04/13 02:51:48;;;;;;;4.47;1.00;;;5.00;99.90;;;;;;4914024;29;20460;-78
2023/04/13 02:54:16;;;;;;;4.65;1.45;;;5.00;99.90;;;;;;4898080;29;20056;-77
2023/04/13 02:56:48;;;;;;;6.90;1.45;;;5.00;99.90;;;;;;4898904;29;20055;-74
2023/04/13 02:59:15;;;;;;;3.53;1.05;;;5.00;99.90;;;;;;4914561;29;20139;-73
2023/04/13 03:01:44;;;;;;;1.90;0.90;;;5.00;99.90;;;;;;4898497;29;20111;-73
2023/04/13 03:04:15;;;;;;;5.18;0.98;;;5.00;99.90;;;;;;4897912;29;20079;-73
2023/04/13 03:06:44;;;;;;;3.50;1.20;;;5.00;99.90;;;;;;4910993;29;20053;-74
2023/04/13 03:09:12;;;;;;;4.88;1.27;;;5.00;99.90;;;;;;4892174;29;20056;-74
2023/04/13 03:11:47;;;;;;;1.80;0.90;;;5.00;99.90;;;;;;4906590;29;20580;-74
2023/04/13 03:14:21;;;;;;;1.55;0.90;;;5.00;99.90;;;;;;4915023;29;20068;-74
2023/04/13 03:16:53;;;;;;;3.87;1.23;;;5.00;99.90;;;;;;4901597;29;20052;-74
2023/04/13 03:19:25;;;;;;;11.18;1.30;;;4.90;99.90;;;;;;4914228;29;20346;-75
2023/04/13 03:21:53;;;;;;;3.08;1.02;;;4.90;99.90;;;;;;4899774;29;20063;-73
2023/04/13 03:24:26;;;;;;;1.90;1.10;;;5.00;99.90;;;;;;4911805;29;20053;-73
2023/04/13 03:26:56;;;;;;;6.60;1.38;;;5.00;99.90;;;;;;4912246;29;20051;-74
2023/04/13 03:29:30;;;;;;;3.13;1.55;;;4.90;99.90;;;;;;4895529;29;20127;-74
2023/04/13 03:31:57;;;;;;;3.80;1.02;;;5.00;99.90;;;;;;4915392;29;20111;-75
2023/04/13 03:34:28;;;;;;;7.20;3.53;;;5.00;99.90;;;;;;4893517;29;20053;-77
2023/04/13 03:36:56;;;;;;;4.13;1.73;;;5.00;99.90;;;;;;4866314;29;20422;-79
2023/04/13 03:39:23;;;;;;;5.82;1.20;;;5.00;99.90;;;;;;4914105;29;20059;-78
2023/04/13 03:41:51;;;;;;;5.38;1.40;;;5.00;99.90;;;;;;4891890;29;20059;-77
2023/04/13 03:44:18;;;;;;;14.10;1.30;;;4.90;99.90;;;;;;4896655;29;20048;-76
2023/04/13 03:46:46;;;;;;;8.52;1.40;;;4.90;99.90;;;;;;4895861;29;20060;-79
2023/04/13 03:49:24;;;;;;;2.40;1.10;;;4.90;99.90;;;;;;4882594;29;20112;-78
2023/04/13 03:51:54;;;;;;;5.47;1.23;;;4.80;99.90;;;;;;4897994;29;20147;-76
2023/04/13 03:54:22;;;;;;;2.42;0.90;;;4.80;99.90;;;;;;4898623;29;20063;-73
2023/04/13 03:56:53;;;;;;;4.15;1.55;;;4.80;99.90;;;;;;4913284;29;20056;-74
2023/04/13 03:59:20;;;;;;;4.43;1.30;;;4.90;99.90;;;;;;4897522;29;20056;-72
2023/04/13 04:01:48;;;;;;;4.30;1.35;;;4.90;99.90;;;;;;4897997;29;20054;-83
2023/04/13 04:04:16;;;;;;;30.75;2.70;;;4.90;99.90;;;;;;4908686;29;20111;-81
2023/04/13 04:06:44;;;;;;;5.53;1.08;;;5.00;99.90;;;;;;4892022;29;20084;-79
2023/04/13 04:09:15;;;;;;;4.20;1.10;;;5.00;99.90;;;;;;4883660;29;20593;-80
2023/04/13 04:11:46;;;;;;;4.60;1.35;;;5.00;99.90;;;;;;4916568;29;20059;-79
2023/04/13 04:14:19;;;;;;;7.57;1.30;;;5.10;99.90;;;;;;4905662;29;20056;-79
2023/04/13 04:17:03;;;;;;;14.15;1.58;;;5.10;99.90;;;;;;4901862;29;20299;-81
2023/04/13 04:19:30;;;;;;;4.90;1.17;;;5.10;99.90;;;;;;4915021;29;20204;-81
2023/04/13 04:22:02;;;;;;;2.45;1.60;;;5.20;99.90;;;;;;4883878;29;20072;-81
2023/04/13 04:24:36;;;;;;;3.50;1.33;;;5.20;99.90;;;;;;4898320;29;20048;-81
2023/04/13 04:27:04;;;;;;;8.73;1.42;;;5.20;99.90;;;;;;4915540;29;20532;-81
2023/04/13 04:29:34;;;;;;;2.25;1.17;;;5.20;99.90;;;;;;4898785;29;20048;-82
2023/04/13 04:32:09;;;;;;;;;;;5.20;99.90;;;;;;4899410;29;20509;-82
2023/04/13 04:34:39;;;;;;;6.38;1.20;;;5.30;99.90;;;;;;4882991;29;19926;-80
2023/04/13 04:37:12;;;;;;;6.70;2.03;;;5.30;99.90;;;;;;4890985;29;20053;-80
2023/04/13 04:39:44;;;;;;;27.80;3.30;;;5.40;99.90;;;;;;4874132;29;20525;-80
2023/04/13 04:42:17;;;;;;;11.90;1.58;;;5.30;99.90;;;;;;4881129;29;20466;-77
2023/04/13 04:44:48;;;;;;;8.48;1.30;;;5.30;99.90;;;;;;4913183;29;20048;-76
2023/04/13 04:47:23;;;;;;;4.80;1.60;;;5.30;99.90;;;;;;4898752;29;20470;-81
2023/04/13 04:50:09;;;;;;;10.73;1.35;;;5.30;99.90;;;;;;4880088;29;20060;-80
2023/04/13 04:52:41;;;;;;;2.72;0.90;;;5.30;99.90;;;;;;4893398;29;20546;-77
2023/04/13 04:55:13;;;;;;;5.38;0.93;;;5.30;99.90;;;;;;4897274;29;20087;-81
2023/04/13 04:57:44;;;;;;;9.88;1.85;;;5.30;99.90;;;;;;4896782;29;20119;-79
2023/04/13 05:00:16;;;;;;;2.97;1.20;;;5.30;99.90;;;;;;4881765;29;20455;-81
2023/04/13 05:02:53;;;;;;;4.32;1.15;;;5.30;99.90;;;;;;4887864;29;20084;-76
2023/04/13 05:05:22;;;;;;;11.02;1.42;;;5.30;99.90;;;;;;4871092;29;20071;-81
2023/04/13 05:07:49;;;;;;;11.88;1.38;;;5.40;99.90;;;;;;4908023;29;20047;-82
2023/04/13 05:10:18;;;;;;;12.68;2.20;;;5.50;99.90;;;;;;4895359;29;20048;-77
2023/04/13 05:12:53;;;;;;;5.68;1.27;;;5.50;99.90;;;;;;4909867;29;20111;-77
2023/04/13 05:15:26;;;;;;;6.50;1.00;;;5.60;99.90;;;;;;4897386;29;20079;-80
2023/04/13 05:17:56;;;;;;;11.00;1.40;;;5.70;99.90;;;;;;4895319;29;20067;-77
2023/04/13 05:20:27;;;;;;;6.80;1.02;;;5.70;99.90;;;;;;4895656;29;20083;-77
2023/04/13 05:23:00;;;;;;;10.05;1.45;;;5.80;99.90;;;;;;4877580;29;20562;-78
2023/04/13 05:25:29;;;;;;;5.53;1.73;;;5.70;99.90;;;;;;4894354;29;20104;-77
2023/04/13 05:28:04;;;;;;;9.48;1.73;;;5.80;99.90;;;;;;4877394;29;20622;-77
2023/04/13 05:30:33;;;;;;;8.35;1.15;;;5.80;99.90;;;;;;4912064;29;20174;-77
2023/04/13 05:33:04;;;;;;;3.38;1.40;;;5.80;99.90;;;;;;4895318;29;20139;-78
2023/04/13 05:35:32;;;;;;;3.78;1.20;;;5.80;99.90;;;;;;4880426;29;20143;-78
2023/04/13 05:38:01;;;;;;;3.35;1.33;;;5.80;99.90;;;;;;4895027;29;20394;-77
2023/04/13 05:40:34;;;;;;;7.55;2.05;;;6.00;99.90;;;;;;4895064;29;20055;-78
2023/04/13 05:43:03;;;;;;;16.23;2.10;;;6.30;99.90;;;;;;4880046;29;20274;-78
2023/04/13 05:45:35;;;;;;;3.30;1.10;;;6.60;99.90;;;;;;4882446;29;20406;-78
2023/04/13 05:48:07;;;;;;;6.82;1.10;;;7.10;99.90;;;;;;4897272;29;20044;-79
2023/04/13 05:50:34;;;;;;;12.52;1.42;;;7.70;99.90;;;;;;4895214;29;20040;-79
2023/04/13 05:53:04;;;;;;;9.63;1.20;;;8.00;99.90;;;;;;4897679;29;20791;-79
2023/04/13 05:55:43;;;;;;;14.43;2.03;;;8.30;99.90;;;;;;4900638;29;20405;-78
2023/04/13 05:58:11;;;;;;;10.82;1.33;;;8.80;99.90;;;;;;4912099;29;20056;-80
2023/04/13 06:00:38;;;;;;;9.88;1.40;;;9.10;99.90;;;;;;4915370;29;20067;-78
2023/04/13 06:03:11;;;;;;;8.70;1.30;;;9.10;99.90;;;;;;4883359;29;20051;-78
2023/04/13 06:05:39;;;;;;;12.70;1.95;;;9.10;99.90;;;;;;4900054;29;20059;-78
2023/04/13 06:08:07;;;;;;;14.10;1.33;;;9.00;99.90;;;;;;4898832;29;20044;-78
2023/04/13 06:10:39;;;;;;;9.38;1.42;;;9.00;99.90;;;;;;4898830;29;20048;-79
2023/04/13 06:13:08;;;;;;;11.43;1.75;;;9.20;99.90;;;;;;4915719;29;20052;-80
2023/04/13 06:15:37;;;;;;;20.08;1.70;;;9.40;99.60;;;;;;4915301;29;20059;-79
2023/04/13 06:18:05;;;;;;;14.48;1.60;;;9.50;99.60;;;;;;4915690;29;20138;-80
2023/04/13 06:20:34;;;;;;;12.07;1.17;;;9.80;98.30;;;;;;4895164;29;20040;-79
2023/04/13 06:23:02;;;;;;;9.57;1.40;;;10.00;97.10;;;;;;4882213;29;20054;-78
2023/04/13 06:25:32;;;;;;;42.88;2.95;;;10.30;95.10;;;;;;4898516;29;20096;-79
2023/04/13 06:28:03;;;;;;;13.50;1.58;;;10.50;94.20;;;;;;4882748;29;20052;-80
2023/04/13 06:30:35;;;;;;;5.05;0.90;;;10.80;93.60;;;;;;4898563;29;20062;-79
2023/04/13 06:33:07;;;;;;;9.38;1.30;;;11.10;92.40;;;;;;4898389;29;20054;-79
2023/04/13 06:35:37;;;;;;;6.28;1.05;;;11.20;91.50;;;;;;4898200;29;20138;-80
2023/04/13 06:38:06;;;;;;;12.82;3.88;;;11.40;91.10;;;;;;4880357;29;20120;-79
2023/04/13 06:40:48;;;;;;;12.10;1.58;;;11.60;90.50;;;;;;4898057;29;20506;-79
2023/04/13 06:43:15;;;;;;;9.13;1.58;;;11.90;89.80;;;;;;4897975;29;20142;-79
2023/04/13 06:45:59;;;;;;;14.85;2.35;;;12.20;86.70;;;;;;4882406;29;20048;-79
2023/04/13 06:48:29;;;;;;;4.65;1.05;;;12.30;84.80;;;;;;4881243;29;20139;-79
2023/04/13 06:51:00;;;;;;;3.83;1.08;;;12.50;83.10;;;;;;4898393;29;20055;-78
2023/04/13 06:53:29;;;;;;;5.15;1.38;;;12.60;82.80;;;;;;4902038;29;20048;-78
2023/04/13 06:55:57;;;;;;;9.88;1.50;;;12.80;81.10;;;;;;4890774;29;20062;-78
2023/04/13 06:58:26;;;;;;;9.52;1.10;;;13.10;79.90;;;;;;4901643;29;20576;-79
2023/04/13 07:00:54;;;;;;;6.05;1.77;;;13.10;78.40;;;;;;4890421;29;20060;-79
2023/04/13 07:03:23;;;;;;;7.38;1.45;;;13.10;78.00;;;;;;4926582;29;20052;-79
2023/04/13 07:05:54;;;;;;;27.05;2.40;;;13.40;77.50;;;;;;4903475;29;20044;-79
2023/04/13 07:08:23;;;;;;;10.05;1.50;;;13.60;75.90;;;;;;4912541;29;20060;-80
2023/04/13 07:10:54;;;;;;;7.28;1.20;;;13.90;73.50;;;;;;4901409;29;20156;-81
2023/04/13 07:13:30;;;;;;;14.27;1.60;;;14.20;74.10;;;;;;4923878;29;20480;-81
2023/04/13 07:15:59;;;;;;;11.73;1.33;;;14.40;69.70;;;;;;4898910;29;20060;-79
2023/04/13 07:18:29;;;;;;;7.38;1.58;;;14.30;70.40;;;;;;4914765;29;20084;-81
2023/04/13 07:21:08;;;;;;;11.45;1.40;;;14.40;69.00;;;;;;4904316;29;20048;-79
2023/04/13 07:23:50;;;;;;;13.82;2.13;;;14.50;68.40;;;;;;4911634;29;20135;-80
2023/04/13 07:26:26;;;;;;;10.95;1.83;;;14.70;68.40;;;;;;4907976;29;20517;-80
2023/04/13 07:28:59;;;;;;;2.92;1.15;;;14.90;67.50;;;;;;4921754;29;20060;-80
2023/04/13 07:31:38;;;;;;;10.63;1.98;;;15.20;66.30;;;;;;4933988;29;20036;-79
2023/04/13 07:34:19;;;;;;;16.67;1.55;;;15.60;65.40;;;;;;4912636;29;20513;-80
2023/04/13 07:36:51;;;;;;;4.50;1.35;;;15.80;63.00;;;;;;4903966;29;20416;-83
2023/04/13 07:39:21;;;;;;;;;;;15.80;62.80;;;;;;4917181;29;20501;-79
2023/04/13 07:41:55;;;;;;;18.13;1.93;;;15.90;62.80;;;;;;4916076;29;19938;-80
2023/04/13 07:44:31;;;;;;;7.90;1.48;;;16.20;62.10;;;;;;4914127;29;20394;-80
2023/04/13 07:47:00;;;;;;;3.83;1.35;;;16.30;61.30;;;;;;4882379;29;20054;-80
2023/04/13 07:49:30;;;;;;;24.55;3.28;;;16.50;59.60;;;;;;4915850;29;20205;-80
2023/04/13 07:51:59;;;;;;;6.47;1.40;;;16.60;59.10;;;;;;4882739;29;20083;-78
2023/04/13 07:54:29;;;;;;;12.68;1.65;;;16.60;59.40;;;;;;4912265;29;20556;-78
2023/04/13 07:56:57;;;;;;;11.55;1.80;;;16.60;58.70;;;;;;4881817;29;20071;-79
2023/04/13 07:59:28;;;;;;;4.90;1.58;;;16.70;58.70;;;;;;4909693;29;20044;-83
2023/04/13 08:01:55;;;;;;;11.05;1.63;;;17.10;58.00;;;;;;4898593;29;20066;-82
2023/04/13 08:04:25;;;;;;;14.48;2.15;;;17.10;57.80;;;;;;4879017;29;20139;-81
2023/04/13 08:06:53;;;;;;;5.22;1.50;;;17.30;57.20;;;;;;4896922;29;20517;-81
2023/04/13 08:09:21;;;;;;;3.42;1.52;;;17.40;57.10;;;;;;4896791;29;20080;-82
2023/04/13 08:11:49;;;;;;;11.23;1.67;;;17.60;57.60;;;;;;4877811;29;20048;-81
2023/04/13 08:14:17;;;;;;;8.00;1.55;;;17.20;55.90;;;;;;4914110;29;20040;-83
2023/04/13 08:16:48;;;;;;;13.38;1.77;;;16.50;57.20;;;;;;4880634;29;20540;-81
2023/04/13 08:19:17;;;;;;;14.82;1.77;;;15.60;58.10;;;;;;4893784;29;20063;-79
2023/04/13 08:21:51;;;;;;;11.47;1.60;;;15.40;59.40;;;;;;4904686;29;20046;-77
2023/04/13 08:24:20;;;;;;;13.85;2.17;;;16.10;59.00;;;;;;4907052;29;20051;-77
2023/04/13 08:26:48;;;;;;;10.23;1.63;;;16.80;57.50;;;;;;4913584;29;20066;-77
2023/04/13 08:29:15;;;;;;;3.05;1.50;;;17.10;56.20;;;;;;4905353;29;20535;-78
2023/04/13 08:31:43;;;;;;;7.93;1.70;;;17.30;56.50;;;;;;4894693;29;20151;-77
2023/04/13 08:34:11;;;;;;;8.23;1.95;;;17.50;55.90;;;;;;4906901;29;20135;-78
2023/04/13 08:36:39;;;;;;;9.00;2.05;;;18.00;54.90;;;;;;4896694;29;20071;-77
2023/04/13 08:39:09;;;;;;;7.88;1.98;;;18.40;54.40;;;;;;4909120;29;20048;-77
2023/04/13 08:41:39;;;;;;;10.40;2.08;;;18.60;53.90;;;;;;4898613;29;20055;-78
2023/04/13 08:44:07;;;;;;;23.02;2.55;;;18.90;53.00;;;;;;4896373;29;20063;-79
2023/04/13 08:46:41;;;;;;;18.63;3.30;;;19.20;52.50;;;;;;4901764;29;20060;-80
2023/04/13 08:49:11;;;;;;;16.90;2.67;;;19.40;51.50;;;;;;4897299;29;20068;-80
2023/04/13 08:52:03;;;;;;;11.60;2.30;;;;;;;;;;4886167;29;20090;-80
2023/04/13 08:54:33;;;;;;;19.17;2.08;;;19.70;51.30;;;;;;4888277;29;20432;-78
2023/04/13 08:57:03;;;;;;;16.15;2.30;;;19.90;50.30;;;;;;4893670;29;20060;-78
2023/04/13 08:59:36;;;;;;;19.42;2.95;;;19.70;50.30;;;;;;4903049;29;20135;-78
2023/04/13 09:02:06;;;;;;;9.23;1.83;;;19.40;50.70;;;;;;4902719;29;20111;-83
2023/04/13 09:04:43;;;;;;;13.93;1.77;;;19.40;50.40;;;;;;4879674;29;20056;-81
2023/04/13 09:07:17;;;;;;;10.00;2.25;;;19.10;51.00;;;;;;4894214;29;20459;-82
2023/04/13 09:09:48;;;;;;;11.88;1.80;;;18.70;51.70;;;;;;4894390;29;20087;-83
2023/04/13 09:12:15;;;;;;;12.07;1.70;;;18.70;51.60;;;;;;4909215;29;20060;-83
2023/04/13 09:14:44;;;;;;;6.97;1.90;;;18.70;51.10;;;;;;4892591;29;20531;-82
2023/04/13 09:17:24;;;;;;;11.13;2.00;;;18.50;51.20;;;;;;4896741;29;20056;-82
2023/04/13 09:19:53;;;;;;;9.75;1.98;;;18.60;51.60;;;;;;4907899;29;20052;-82
2023/04/13 09:22:21;;;;;;;9.38;1.80;;;19.10;51.40;;;;;;4894475;29;20037;-81
2023/04/13 09:24:50;;;;;;;6.53;1.58;;;19.60;50.00;;;;;;4897858;29;20103;-81
2023/04/13 09:27:19;;;;;;;8.23;1.50;;;19.80;49.40;;;;;;4884017;29;20594;-83
2023/04/13 09:29:52;;;;;;;9.30;1.80;;;20.10;49.80;;;;;;4914208;29;20044;-81
2023/04/13 09:32:21;;;;;;;15.27;2.28;;;20.30;49.40;;;;;;4884236;29;20132;-80
2023/04/13 09:34:59;;;;;;;11.32;2.25;;;20.50;49.00;;;;;;4916812;29;20043;-82
2023/04/13 09:37:28;;;;;;;14.35;1.90;;;20.80;48.10;;;;;;4922240;29;20060;-82
2023/04/13 09:40:08;;;;;;;6.40;1.67;;;20.70;47.70;;;;;;4933726;29;20043;-82
2023/04/13 09:42:36;;;;;;;13.63;2.20;;;20.60;48.10;;;;;;4919377;29;20417;-81
2023/04/13 09:45:05;;;;;;;7.05;1.60;;;20.00;47.80;;;;;;4918831;29;20402;-83
2023/04/13 09:47:37;;;;;;;14.60;2.22;;;19.30;49.30;;;;;;4896643;29;20070;-83
2023/04/13 09:50:16;;;;;;;5.68;2.00;;;18.50;49.70;;;;;;4916288;29;20131;-82
2023/04/13 09:52:45;;;;;;;8.27;2.00;;;18.10;51.50;;;;;;4915806;29;20052;-82
2023/04/13 09:55:17;;;;;;;9.35;1.67;;;18.00;51.70;;;;;;4915436;29;20052;-81
2023/04/13 09:57:45;;;;;;;15.80;2.83;;;18.10;52.40;;;;;;4915916;29;20689;-82
2023/04/13 10:00:19;;;;;;;13.85;2.08;;;18.70;50.50;;;;;;4883423;29;20516;-81
2023/04/13 10:02:49;;;;;;;7.15;1.75;;;19.10;50.10;;;;;;4913320;29;20051;-81
2023/04/13 10:05:17;;;;;;;12.18;1.65;;;19.60;50.30;;;;;;4914939;29;20505;-82
2023/04/13 10:07:50;;;;;;;14.65;2.72;;;20.20;48.40;;;;;;4914016;29;20050;-82
2023/04/13 10:10:21;;;;;;;;;;;20.10;48.10;;;;;;4891554;29;20071;-81
2023/04/13 10:12:53;;;;;;;11.45;1.77;;;20.10;48.70;;;;;;4893242;29;19931;-82
2023/04/13 10:15:40;;;;;;;5.85;2.00;;;20.30;48.40;;;;;;4897632;29;20066;-83
2023/04/13 10:18:25;;;;;;;6.93;1.77;;;20.40;47.90;;;;;;4913496;29;20062;-84
2023/04/13 10:20:54;;;;;;;7.28;2.25;;;20.80;46.70;;;;;;4911714;29;20044;-84
2023/04/13 10:23:24;;;;;;;7.47;1.83;;;20.50;46.80;;;;;;4919364;29;20052;-84
2023/04/13 10:25:56;;;;;;;14.48;2.67;;;20.50;47.50;;;;;;4915759;29;20056;-85
2023/04/13 10:28:27;;;;;;;16.52;2.15;;;20.80;46.80;;;;;;4912201;29;20048;-84
2023/04/13 10:30:57;;;;;;;13.00;2.25;;;20.90;46.80;;;;;;4915201;29;20596;-87
2023/04/13 10:33:30;;;;;;;8.32;2.10;;;21.10;46.20;;;;;;4915769;29;20118;-86
2023/04/13 10:36:00;;;;;;;3.10;1.77;;;21.10;45.80;;;;;;4917306;29;20048;-85
2023/04/13 10:38:28;;;;;;;5.80;1.67;;;21.20;46.00;;;;;;4914816;29;20143;-85
2023/04/13 10:40:57;;;;;;;9.70;2.05;;;21.50;45.80;;;;;;4914819;29;20066;-78
2023/04/13 10:43:29;;;;;;;5.80;1.60;;;21.40;45.40;;;;;;4914096;29;20048;-80
2023/04/13 10:46:07;;;;;;;5.32;1.50;;;21.30;45.80;;;;;;4915438;29;20052;-80
2023/04/13 10:48:36;;;;;;;7.38;1.85;;;21.40;46.10;;;;;;4895878;29;20103;-76
2023/04/13 10:51:09;;;;;;;9.18;1.92;;;21.20;45.70;;;;;;4880231;29;20048;-78
2023/04/13 10:53:39;;;;;;;9.25;1.80;;;20.40;45.50;;;;;;4912056;29;20141;-77
2023/04/13 10:56:17;;;;;;;7.43;2.17;;;19.60;46.60;;;;;;4909829;29;20115;-76
2023/04/13 10:58:55;;;;;;;7.28;1.90;;;18.90;47.60;;;;;;4908855;29;20056;-85
2023/04/13 11:01:26;;;;;;;9.48;1.60;;;18.50;49.10;;;;;;4917709;29;20062;-83
2023/04/13 11:04:05;;;;;;;3.85;1.70;;;18.50;49.40;;;;;;4910600;29;20115;-81
2023/04/13 11:06:39;;;;;;;14.27;2.20;;;18.40;48.60;;;;;;4904593;29;20421;-85
2023/04/13 11:09:11;;;;;;;10.07;2.08;;;18.50;48.60;;;;;;4909810;29;20054;-83
2023/04/13 11:11:51;;;;;;;8.98;1.98;;;18.60;49.20;;;;;;4877135;29;20051;-83
2023/04/13 11:14:23;;;;;;;7.15;2.75;;;19.20;48.70;;;;;;4900433;29;20056;-82
2023/04/13 11:17:10;;;;;;;5.45;1.83;;;19.80;47.10;;;;;;4910659;29;20139;-86
2023/04/13 11:19:47;;;;;;;10.35;2.03;;;20.10;46.40;;;;;;4918074;29;20513;-85
2023/04/13 11:22:17;;;;;;;11.45;1.85;;;20.20;46.20;;;;;;4915492;29;20116;-90
2023/04/13 11:25:09;;;;;;;14.40;2.40;;;20.60;46.30;;;;;;4894875;29;20051;-81
2023/04/13 11:27:43;;;;;;;4.80;2.00;;;21.30;45.70;;;;;;4909479;29;20442;-83
2023/04/13 11:30:24;;;;;;;3.58;1.92;;;21.80;44.10;;;;;;4905402;29;20056;-90
2023/04/13 11:32:58;;;;;;;11.77;1.88;;;22.10;44.00;;;;;;4906666;29;20140;-81
2023/04/13 11:35:31;;;;;;;10.15;2.55;;;22.40;43.40;;;;;;4917684;29;20075;-83
2023/04/13 11:38:09;;;;;;;4.50;1.80;;;22.50;42.90;;;;;;4902801;29;20052;-83
2023/04/13 11:40:46;;;;;;;10.25;2.03;;;22.50;42.20;;;;;;4918984;29;20147;-87
2023/04/13 11:43:17;;;;;;;9.73;1.70;;;22.60;42.50;;;;;;4920044;29;20048;-86
2023/04/13 11:45:59;;;;;;;8.63;2.50;;;22.60;42.20;;;;;;4900613;29;20056;-86
2023/04/13 11:48:32;;;;;;;11.05;1.83;;;22.70;41.90;;;;;;4895309;29;20426;-83
2023/04/13 11:51:04;;;;;;;8.82;1.65;;;22.60;42.00;;;;;;4899054;29;20107;-84
2023/04/13 11:53:35;;;;;;;9.40;2.08;;;22.70;41.60;;;;;;4917168;29;20139;-81
2023/04/13 11:56:03;;;;;;;4.97;1.70;;;22.60;42.00;;;;;;4891948;29;20461;-81
2023/04/13 11:58:32;;;;;;;8.88;2.03;;;22.20;42.00;;;;;;4889397;29;20491;-81
2023/04/13 12:01:06;;;;;;;8.05;2.22;;;22.20;42.60;;;;;;4914665;29;20131;-83
2023/04/13 12:03:35;;;;;;;7.45;1.75;;;22.60;42.00;;;;;;4916575;29;20047;-81
2023/04/13 12:06:03;;;;;;;19.27;2.63;;;22.90;40.70;;;;;;4897749;29;20040;-83
2023/04/13 12:08:34;;;;;;;8.27;1.90;;;22.80;40.90;;;;;;4895681;29;20100;-80
2023/04/13 12:11:05;;;;;;;7.20;2.20;;;22.70;41.20;;;;;;4896204;29;20048;-78
2023/04/13 12:13:43;;;;;;;10.50;2.15;;;22.70;40.90;;;;;;4910591;29;20055;-79
2023/04/13 12:16:11;;;;;;;6.53;2.00;;;22.60;40.90;;;;;;4912208;29;20441;-80
2023/04/13 12:18:43;;;;;;;6.15;1.60;;;22.50;41.30;;;;;;4895631;29;20509;-76
2023/04/13 12:21:14;;;;;;;10.77;2.10;;;22.50;40.80;;;;;;4912920;29;20095;-75
2023/04/13 12:23:53;;;;;;;7.78;1.85;;;22.70;40.00;;;;;;4918128;29;20052;-75
2023/04/13 12:26:23;;;;;;;6.80;1.83;;;22.50;40.30;;;;;;4884349;29;20047;-77
2023/04/13 12:28:56;;;;;;;7.20;1.90;;;22.60;40.80;;;;;;4915588;29;20058;-73
2023/04/13 12:31:23;;;;;;;19.75;2.42;;;22.90;40.00;;;;;;4910778;29;20066;-77
2023/04/13 12:33:51;;;;;;;12.90;1.88;;;22.70;40.40;;;;;;4912707;29;20127;-74
2023/04/13 12:36:18;;;;;;;4.60;1.63;;;23.20;40.10;;;;;;4911601;29;20063;-75
2023/04/13 12:38:46;;;;;;;9.40;2.13;;;23.20;40.30;;;;;;4911379;29;20545;-80
2023/04/13 12:41:13;;;;;;;7.40;1.73;;;23.20;38.90;;;;;;4896025;29;20043;-81
2023/04/13 12:43:41;;;;;;;12.55;1.67;;;23.00;39.80;;;;;;4911312;29;20087;-79
2023/04/13 12:46:09;;;;;;;91.13;6.32;;;23.00;39.20;;;;;;4906045;29;20052;-80
2023/04/13 12:48:37;;;;;;;13.80;2.13;;;23.30;39.00;;;;;;4916787;29;20178;-81
2023/04/13 12:51:05;;;;;;;50.13;4.13;;;23.30;38.60;;;;;;4914476;29;20453;-82
2023/04/13 12:53:34;;;;;;;7.32;1.55;;;23.60;38.60;;;;;;4919329;29;20055;-82
2023/04/13 12:56:03;;;;;;;8.40;2.20;;;23.80;38.70;;;;;;4897934;29;20059;-82
2023/04/13 12:58:30;;;;;;;11.88;2.30;;;23.90;38.20;;;;;;4890307;29;20053;-82
2023/04/13 13:01:01;;;;;;;11.50;2.28;;;23.80;38.50;;;;;;4905912;29;20048;-81
2023/04/13 13:03:30;;;;;;;57.08;4.75;;;23.90;38.00;;;;;;4912521;29;20054;-85
2023/04/13 13:05:58;;;;;;;15.23;2.45;;;23.90;37.50;;;;;;4914216;29;20123;-83
2023/04/13 13:08:26;;;;;;;10.50;2.20;;;23.70;37.80;;;;;;4891715;29;20052;-79
2023/04/13 13:10:54;;;;;;;16.15;1.83;;;23.80;37.80;;;;;;4911766;29;20453;-78